createdAt,value
2022-12-05T06:32:11.632Z,22.05
2022-12-05T06:34:38.831Z,18.05
2022-12-05T06:37:06.093Z,20.67
2022-12-05T06:39:33.587Z,17.63
2022-12-05T06:42:01.259Z,20.48
2022-12-05T06:44:29.136Z,23.55
2022-12-05T06:46:56.889Z,21.23
2022-12-05T06:49:31.695Z,23.67
2022-12-05T06:52:00.337Z,21.35
2022-12-05T06:54:27.905Z,20.80
2022-12-05T06:56:55.548Z,21.42
2022-12-05T06:59:22.682Z,18.90
2022-12-05T07:01:52.093Z,19.58
2022-12-05T07:04:24.210Z,22.85
2022-12-05T07:06:54.369Z,20.98
2022-12-05T07:09:46.929Z,22.10
2022-12-05T07:12:19.265Z,18.95
2022-12-05T07:14:49.361Z,16.30
2022-12-05T07:17:19.430Z,18.80
2022-12-05T07:19:49.632Z,23.27
2022-12-05T07:22:22.174Z,21.05
2022-12-05T07:24:52.988Z,27.15
2022-12-05T07:27:26.547Z,21.02
2022-12-05T07:29:59.052Z,19.42
2022-12-05T07:32:40.479Z,24.05
2022-12-05T07:35:09.599Z,23.67
2022-12-05T07:37:40.548Z,18.27
2022-12-05T07:40:15.054Z,18.42
2022-12-05T07:42:43.108Z,18.63
2022-12-05T07:45:12.570Z,17.65
2022-12-05T07:47:48.254Z,22.95
2022-12-05T07:50:18.991Z,17.52
2022-12-05T07:52:46.858Z,23.70
2022-12-05T07:55:20.171Z,20.75
2022-12-05T07:57:48.089Z,21.92
2022-12-05T08:00:19.616Z,18.50
2022-12-05T08:02:49.633Z,15.63
2022-12-05T08:05:17.401Z,19.40
2022-12-05T08:07:45.057Z,19.83
2022-12-05T08:10:13.042Z,20.55
2022-12-05T08:12:43.540Z,22.10
2022-12-05T08:15:12.611Z,17.30
2022-12-05T08:17:49.904Z,21.85
2022-12-05T08:20:18.379Z,29.75
2022-12-05T08:22:45.838Z,20.48
2022-12-05T08:25:13.401Z,19.52
2022-12-05T08:27:41.773Z,21.58
2022-12-05T08:30:12.362Z,24.95
2022-12-05T08:32:39.940Z,22.25
2022-12-05T08:35:07.943Z,26.67
2022-12-05T08:37:35.649Z,26.85
2022-12-05T08:40:04.113Z,24.52
2022-12-05T08:42:31.692Z,19.63
2022-12-05T08:44:59.401Z,21.02
2022-12-05T08:47:31.899Z,24.13
2022-12-05T08:56:19.840Z,28.38
2022-12-05T08:58:49.973Z,33.13
2022-12-05T09:01:20.449Z,27.95
2022-12-05T09:03:49.040Z,28.75
2022-12-05T09:06:20.591Z,30.17
2022-12-05T09:08:50.005Z,28.30
2022-12-05T09:11:24.214Z,32.88
2022-12-05T09:13:54.594Z,20.63
2022-12-05T09:16:26.045Z,37.88
2022-12-05T09:18:53.664Z,15.77
2022-12-05T09:21:24.530Z,14.23
2022-12-05T09:23:52.376Z,14.32
2022-12-05T09:26:26.311Z,14.40
2022-12-05T09:28:54.408Z,14.70
2022-12-05T09:31:25.253Z,14.70
2022-12-05T09:33:53.307Z,18.75
2022-12-05T09:36:24.194Z,17.35
2022-12-05T09:38:52.469Z,15.80
2022-12-05T09:44:49.899Z,20.98
2022-12-05T09:47:44.299Z,14.07
2022-12-05T09:50:43.873Z,16.20
2022-12-05T09:53:34.973Z,15.85
2022-12-05T09:56:17.573Z,14.05
2022-12-05T09:58:50.895Z,13.30
2022-12-05T10:01:44.218Z,17.70
2022-12-05T10:04:39.736Z,15.60
2022-12-05T10:07:38.592Z,17.70
2022-12-05T10:13:23.013Z,16.73
2022-12-05T10:15:57.530Z,17.17
2022-12-05T10:18:38.948Z,16.58
2022-12-05T10:21:20.050Z,20.50
2022-12-05T10:24:06.525Z,18.75
2022-12-05T10:26:43.843Z,17.17
2022-12-05T10:32:22.887Z,17.63
2022-12-05T10:34:51.560Z,14.98
2022-12-05T10:37:24.478Z,22.73
2022-12-05T10:42:31.643Z,19.70
2022-12-05T10:45:03.712Z,17.67
2022-12-05T10:47:32.610Z,17.70
2022-12-05T10:50:07.380Z,14.57
2022-12-05T10:52:36.380Z,15.95
2022-12-05T10:55:06.763Z,15.55
2022-12-05T10:57:35.077Z,22.05
2022-12-05T11:00:13.461Z,15.65
2022-12-05T11:02:43.038Z,16.17
2022-12-05T11:05:10.810Z,17.60
2022-12-05T11:07:49.487Z,16.63
2022-12-05T11:10:27.202Z,20.70
2022-12-05T11:12:57.884Z,17.10
2022-12-05T11:15:29.414Z,15.00
2022-12-05T11:18:17.002Z,14.15
2022-12-05T11:20:44.778Z,14.13
2022-12-05T11:23:22.219Z,12.40
2022-12-05T11:25:50.719Z,9.98
2022-12-05T11:31:03.551Z,12.05
2022-12-05T11:33:35.853Z,11.35
2022-12-05T11:36:12.612Z,15.95
2022-12-05T11:38:41.462Z,11.88
2022-12-05T11:41:25.431Z,13.10
2022-12-05T11:44:25.933Z,14.57
2022-12-05T11:47:23.321Z,14.75
2022-12-05T11:50:20.685Z,13.48
2022-12-05T11:53:21.662Z,13.75
2022-12-05T11:56:14.381Z,14.00
2022-12-05T11:59:14.559Z,14.80
2022-12-05T12:01:56.022Z,14.63
2022-12-05T12:05:03.387Z,15.48
2022-12-05T12:08:10.573Z,17.20
2022-12-05T12:11:07.191Z,13.48
2022-12-05T12:13:50.802Z,14.55
2022-12-05T12:16:40.968Z,17.50
2022-12-05T12:19:25.093Z,14.65
2022-12-05T12:22:06.427Z,13.88
2022-12-05T12:25:04.643Z,16.25
2022-12-05T12:28:05.278Z,18.33
2022-12-05T12:31:01.123Z,14.43
2022-12-05T12:33:43.515Z,17.48
2022-12-05T12:36:36.365Z,16.80
2022-12-05T12:39:17.137Z,18.92
2022-12-05T12:42:00.795Z,15.00
2022-12-05T12:44:55.540Z,18.13
2022-12-05T12:47:42.979Z,15.45
2022-12-05T12:53:16.591Z,14.57
2022-12-05T12:55:57.556Z,12.43
2022-12-05T12:59:05.170Z,13.23
2022-12-05T13:04:19.847Z,13.77
2022-12-05T13:06:55.272Z,13.32
2022-12-05T13:09:30.217Z,13.15
2022-12-05T13:12:05.099Z,11.98
2022-12-05T13:14:37.099Z,13.18
2022-12-05T13:17:08.627Z,13.77
2022-12-05T13:19:44.997Z,13.60
2022-12-05T13:22:14.980Z,13.95
2022-12-05T13:24:43.321Z,15.35
2022-12-05T13:27:19.541Z,12.27
2022-12-05T13:29:57.572Z,11.80
2022-12-05T13:32:42.581Z,11.40
2022-12-05T13:35:41.026Z,15.02
2022-12-05T13:38:41.229Z,15.77
2022-12-05T13:41:29.385Z,17.55
2022-12-05T13:44:06.363Z,17.70
2022-12-05T13:46:38.906Z,23.33
2022-12-05T13:49:17.547Z,16.88
2022-12-05T13:51:46.135Z,19.00
2022-12-05T13:54:19.739Z,19.88
2022-12-05T13:57:03.064Z,18.60
2022-12-05T14:00:06.977Z,20.80
2022-12-05T14:08:03.753Z,25.60
2022-12-05T14:15:55.188Z,15.20
2022-12-05T14:18:41.883Z,27.38
2022-12-05T14:21:40.312Z,20.38
2022-12-05T14:24:29.218Z,17.45
2022-12-05T14:27:11.364Z,21.05
2022-12-05T14:30:02.791Z,19.95
2022-12-05T14:32:38.929Z,19.40
2022-12-05T14:35:22.022Z,16.17
2022-12-05T14:37:55.502Z,22.02
2022-12-05T14:40:34.588Z,15.45
2022-12-05T14:43:16.289Z,16.55
2022-12-05T14:48:40.112Z,19.00
2022-12-05T14:51:33.409Z,13.95
2022-12-05T14:54:16.747Z,15.10
2022-12-05T14:56:48.377Z,21.38
2022-12-05T14:59:27.525Z,12.77
2022-12-05T15:01:58.262Z,14.95
2022-12-05T15:04:51.122Z,13.27
2022-12-05T15:07:22.960Z,15.65
2022-12-05T15:12:55.026Z,11.80
2022-12-05T15:15:44.948Z,10.52
2022-12-05T15:18:24.843Z,14.57
2022-12-05T15:21:16.337Z,11.13
2022-12-05T15:23:48.039Z,13.80
2022-12-05T15:26:49.090Z,12.20
2022-12-05T15:29:27.215Z,9.60
2022-12-05T15:32:02.337Z,13.20
2022-12-05T15:37:21.226Z,12.50
2022-12-05T15:42:51.613Z,11.07
2022-12-05T15:45:27.242Z,8.93
2022-12-05T15:48:12.609Z,12.57
2022-12-05T15:50:49.490Z,10.45
2022-12-05T15:53:34.629Z,12.43
2022-12-05T15:56:28.842Z,11.88
2022-12-05T15:59:05.684Z,11.52
2022-12-05T16:01:39.254Z,10.60
2022-12-05T16:04:23.717Z,10.20
2022-12-05T16:06:56.278Z,13.13
2022-12-05T16:09:26.717Z,9.18
2022-12-05T16:11:57.479Z,11.05
2022-12-05T16:17:17.347Z,15.32
2022-12-05T16:19:44.924Z,8.88
2022-12-05T16:24:59.635Z,9.75
2022-12-05T16:27:38.841Z,11.80
2022-12-05T16:32:49.119Z,9.25
2022-12-05T16:35:33.875Z,11.32
2022-12-05T16:41:01.865Z,21.15
2022-12-05T16:43:43.786Z,17.35
2022-12-05T16:49:08.441Z,12.02
2022-12-05T16:52:01.622Z,13.52
2022-12-05T16:54:29.134Z,10.50
2022-12-05T16:56:57.127Z,10.10
2022-12-05T16:59:31.257Z,10.65
